Time;durP1;ratioP1;P1;durP2;ratioP2;P2;SDS_P1;SDS_P2;PMS_P1;PMS_P2;Temp;Humidity;BMP_temperature;BMP_pressure;BME280_temperature;BME280_humidity;BME280_pressure;Samples;Min_cycle;Max_cycle;Signal;HPM_P1;HPM_P2
2022/06/05 00:01:50;;;;;;;;;;;;;;;22.28;100.00;98093.13;5080655;28;19925;-60
2022/06/05 00:04:24;;;;;;;;;;;;;;;22.48;100.00;98091.50;5082869;28;19961;-60
2022/06/05 00:06:55;;;;;;;;;;;;;;;22.09;100.00;98071.06;5081039;28;19935;-60
2022/06/05 00:09:29;;;;;;;;;;;;;;;21.88;100.00;98065.63;5061495;28;19929;-61
2022/06/05 00:12:01;;;;;;;;;;;;;;;21.61;100.00;98068.06;5083190;28;19920;-60
2022/06/05 00:14:28;;;;;;;;;;;;;;;22.27;100.00;98067.06;5088686;28;19931;-60
2022/06/05 00:16:56;;;;;;;;;;;;;;;22.09;100.00;98056.69;5082021;28;19925;-60
2022/06/05 00:19:22;;;;;;;;;;;;;;;22.09;100.00;98056.69;5082802;28;19932;-60
2022/06/05 00:21:49;;;;;;;;;;;;;;;21.88;100.00;98043.09;5079819;28;19925;-60
2022/06/05 00:24:16;;;;;;;;;;;;;;;22.00;100.00;98054.81;5079120;28;19921;-60
2022/06/05 00:26:46;;;;;;;;;;;;;;;22.90;100.00;98045.91;5079903;28;19951;-60
2022/06/05 00:29:20;;;;;;;;;;;;;;;22.82;100.00;98041.34;5082522;28;19925;-60
2022/06/05 00:31:51;;;;;;;;;;;;;;;22.64;100.00;98046.16;5081112;28;19959;-61
2022/06/05 00:34:19;;;;;;;;;;;;;;;22.94;100.00;98046.78;5079006;28;19925;-61
2022/06/05 00:37:01;;;;;;;;;;;;;;;23.06;100.00;98044.06;5080449;28;19932;-61
2022/06/05 00:39:30;;;;;;;;;;;;;;;23.12;100.00;98037.25;5082562;28;20435;-61
2022/06/05 00:41:58;;;;;;;;;;;;;;;23.04;100.00;98032.72;5082506;28;19951;-61
2022/06/05 00:44:28;;;;;;;;;;;;;;;23.08;100.00;98037.16;5088928;28;19947;-61
2022/06/05 00:46:55;;;;;;;;;;;;;;;23.01;100.00;98036.94;5081370;28;19925;-61
2022/06/05 00:49:26;;;;;;;;;;;;;;;22.99;100.00;98035.69;5082003;28;19946;-61
2022/06/05 00:51:52;;;;;;;;;;;;;;;23.20;100.00;98030.91;5079807;28;19963;-62
2022/06/05 00:54:18;;;;;;;;;;;;;;;23.18;100.00;98035.88;5078870;28;19925;-60
2022/06/05 00:56:45;;;;;;;;;;;;;;;23.21;100.00;98032.47;5079967;28;19948;-60
2022/06/05 00:59:12;;;;;;;;;;;;;;;23.27;100.00;98033.84;5081952;28;19925;-60
2022/06/05 01:01:39;;;;;;;;;;;;;;;23.46;100.00;98039.50;5081660;28;19947;-60
2022/06/05 01:04:06;;;;;;;;;;;;;;;23.58;100.00;98041.44;5078366;28;19997;-60
2022/06/05 01:06:33;;;;;;;;;;;;;;;23.67;100.00;98047.56;5078528;28;19967;-60
2022/06/05 01:09:00;;;;;;;;;;;;;;;23.72;100.00;98038.31;5081700;28;19964;-60
2022/06/05 01:11:33;;;;;;;;;;;;;;;23.75;100.00;98034.91;5082099;28;19950;-60
2022/06/05 01:14:05;;;;;;;;;;;;;;;23.76;100.00;98033.78;5092573;28;19951;-60
2022/06/05 01:16:32;;;;;;;;;;;;;;;23.74;100.00;98039.56;5078563;28;19921;-60
2022/06/05 01:19:07;;;;;;;;;;;;;;;23.76;100.00;98036.50;5081557;28;19924;-60
2022/06/05 01:21:48;;;;;;;;;;;;;;;23.74;100.00;98042.28;5081913;28;19925;-60
2022/06/05 01:24:23;;;;;;;;;;;;;;;23.73;100.00;98048.09;5070289;28;19936;-61
2022/06/05 01:26:54;;;;;;;;;;;;;;;23.75;100.00;98049.34;5070385;28;19924;-61
2022/06/05 01:29:24;;;;;;;;;;;;;;;23.70;100.00;98046.06;5070228;28;19951;-61
2022/06/05 01:31:52;;;;;;;;;;;;;;;23.75;100.00;98045.81;5069282;28;19975;-60
2022/06/05 01:34:22;;;;;;;;;;;;;;;23.73;100.00;98037.19;5069875;28;19925;-61
2022/06/05 01:36:53;;;;;;;;;;;;;;;23.71;100.00;98036.72;5069977;28;19925;-61
2022/06/05 01:39:22;;;;;;;;;;;;;;;23.71;100.00;98034.81;5070066;28;20408;-61
2022/06/05 01:41:50;;;;;;;;;;;;;;;23.69;100.00;98044.47;5070710;28;19932;-61
2022/06/05 01:44:19;;;;;;;;;;;;;;;23.71;100.00;98047.63;5072664;28;19925;-60
2022/06/05 01:46:46;;;;;;;;;;;;;;;23.69;100.00;98042.53;5079113;28;19968;-60
2022/06/05 01:49:15;;;;;;;;;;;;;;;23.67;100.00;98039.38;5081081;28;19974;-60
2022/06/05 01:51:44;;;;;;;;;;;;;;;23.69;100.00;98031.63;5080568;28;19925;-60
2022/06/05 01:54:13;;;;;;;;;;;;;;;23.69;100.00;98022.66;5078256;28;19947;-59
2022/06/05 01:56:41;;;;;;;;;;;;;;;23.65;100.00;98023.34;5078351;28;20391;-60
2022/06/05 01:59:11;;;;;;;;;;;;;;;23.59;100.00;98026.66;5081352;28;19924;-60
2022/06/05 02:01:42;;;;;;;;;;;;;;;23.57;100.00;98024.28;5081098;28;19924;-60
2022/06/05 02:04:12;;;;;;;;;;;;;;;23.56;100.00;98019.97;5078157;28;19925;-61
2022/06/05 02:06:40;;;;;;;;;;;;;;;23.57;100.00;98020.75;5078289;28;19924;-61
2022/06/05 02:09:11;;;;;;;;;;;;;;;23.60;100.00;98023.59;5081329;28;19962;-61
2022/06/05 02:11:38;;;;;;;;;;;;;;;23.60;100.00;98031.78;5081201;28;19925;-61
2022/06/05 02:14:07;;;;;;;;;;;;;;;23.60;100.00;98025.53;5091831;28;19975;-60
2022/06/05 02:16:35;;;;;;;;;;;;;;;23.59;100.00;98026.66;5077619;28;19928;-60
2022/06/05 02:19:09;;;;;;;;;;;;;;;23.53;100.00;98011.69;5081007;28;19924;-60
2022/06/05 02:21:38;;;;;;;;;;;;;;;23.50;100.00;98009.63;5080955;28;19970;-60
2022/06/05 02:24:05;;;;;;;;;;;;;;;23.23;100.00;98013.88;5077652;28;19929;-60
2022/06/05 02:26:31;;;;;;;;;;;;;;;22.99;100.00;98003.78;5077610;28;19931;-60
2022/06/05 02:28:58;;;;;;;;;;;;;;;23.17;100.00;98006.28;5080537;28;19958;-60
2022/06/05 02:31:31;;;;;;;;;;;;;;;23.24;100.00;98001.81;5081196;28;19924;-60
2022/06/05 02:34:04;;;;;;;;;;;;;;;23.12;100.00;97999.09;5078028;28;19929;-60
2022/06/05 02:36:37;;;;;;;;;;;;;;;22.98;100.00;98002.22;5077464;28;19927;-61
2022/06/05 02:39:08;;;;;;;;;;;;;;;23.16;100.00;98010.91;5077395;28;19932;-60
2022/06/05 02:41:43;;;;;;;;;;;;;;;23.22;100.00;98012.28;5077437;28;19935;-60
2022/06/05 02:44:32;;;;;;;;;;;;;;;23.30;100.00;98014.09;5092053;28;19939;-60
2022/06/05 02:47:14;;;;;;;;;;;;;;;23.33;100.00;98001.72;5084231;28;19963;-60
2022/06/05 02:49:43;;;;;;;;;;;;;;;23.35;100.00;98008.41;5081450;28;19939;-60
2022/06/05 02:52:11;;;;;;;;;;;;;;;22.94;100.00;97986.88;5081278;28;19971;-60
2022/06/05 02:54:39;;;;;;;;;;;;;;;22.56;100.00;97985.25;5081012;28;19925;-60
2022/06/05 02:57:05;;;;;;;;;;;;;;;22.42;100.00;97979.34;5084313;28;19928;-60
2022/06/05 02:59:32;;;;;;;;;;;;;;;22.57;100.00;97973.22;5084362;28;19925;-60
2022/06/05 03:04:42;;;;;;;;;;;;;;;22.72;100.00;97971.00;5081486;28;19956;-60
2022/06/05 03:07:09;;;;;;;;;;;;;;;22.95;100.00;97967.47;5084205;28;19925;-60
2022/06/05 03:09:36;;;;;;;;;;;;;;;23.05;100.00;97967.03;5084064;28;19920;-60
2022/06/05 03:12:03;;;;;;;;;;;;;;;23.10;100.00;97960.53;5077179;28;19925;-60
2022/06/05 03:14:30;;;;;;;;;;;;;;;23.20;100.00;97957.34;5089845;28;20728;-60
2022/06/05 03:16:56;;;;;;;;;;;;;;;22.86;100.00;97955.13;5083767;28;19935;-60
2022/06/05 03:19:22;;;;;;;;;;;;;;;22.69;100.00;97955.34;5084182;28;20324;-60
2022/06/05 03:21:49;;;;;;;;;;;;;;;22.90;100.00;97956.03;5082400;28;19987;-60
2022/06/05 03:24:16;;;;;;;;;;;;;;;23.00;100.00;97950.91;5080596;28;19925;-60
2022/06/05 03:26:43;;;;;;;;;;;;;;;23.13;100.00;97948.94;5081315;28;19932;-60
2022/06/05 03:29:10;;;;;;;;;;;;;;;23.15;100.00;97940.44;5084240;28;19927;-60
2022/06/05 03:31:36;;;;;;;;;;;;;;;23.13;100.00;97932.59;5084199;28;19925;-60
2022/06/05 03:34:03;;;;;;;;;;;;;;;23.18;100.00;97935.06;5072417;28;19989;-61
2022/06/05 03:36:29;;;;;;;;;;;;;;;23.05;100.00;97939.78;5072261;28;19975;-60
2022/06/05 03:38:58;;;;;;;;;;;;;;;23.17;100.00;97938.16;5072229;28;19925;-60
2022/06/05 03:41:25;;;;;;;;;;;;;;;23.09;100.00;97937.13;5072186;28;19924;-60
2022/06/05 03:43:52;;;;;;;;;;;;;;;23.11;100.00;97940.34;5094580;28;19947;-60
2022/06/05 03:46:19;;;;;;;;;;;;;;;23.13;100.00;97929.88;5062318;28;19992;-60
2022/06/05 03:48:48;;;;;;;;;;;;;;;23.22;100.00;97932.47;5081333;28;19952;-60
2022/06/05 03:51:15;;;;;;;;;;;;;;;23.29;100.00;97935.41;5083604;28;19924;-60
2022/06/05 03:53:42;;;;;;;;;;;;;;;23.30;100.00;97926.91;5083061;28;19939;-60
2022/06/05 03:56:09;;;;;;;;;;;;;;;23.22;100.00;97919.63;5079769;28;19924;-60
2022/06/05 03:58:35;;;;;;;;;;;;;;;22.99;100.00;97926.75;5080161;28;19929;-60
2022/06/05 04:01:03;;;;;;;;;;;;;;;23.06;100.00;97924.22;5080058;28;19925;-60
2022/06/05 04:03:29;;;;;;;;;;;;;;;23.15;100.00;97924.09;5080339;28;19963;-60
2022/06/05 04:05:56;;;;;;;;;;;;;;;23.19;100.00;97920.31;5083213;28;19984;-61
2022/06/05 04:08:22;;;;;;;;;;;;;;;23.23;100.00;97926.69;5083914;28;19940;-61
2022/06/05 04:10:48;;;;;;;;;;;;;;;23.24;100.00;97916.56;5081926;28;19981;-60
2022/06/05 04:13:15;;;;;;;;;;;;;;;23.27;100.00;97915.88;5092517;28;19925;-60
2022/06/05 04:15:42;;;;;;;;;;;;;;;23.27;100.00;97911.25;5082929;28;20380;-60
2022/06/05 04:18:09;;;;;;;;;;;;;;;23.18;100.00;97907.06;5079999;28;19932;-60
2022/06/05 04:20:38;;;;;;;;;;;;;;;23.06;100.00;97910.59;5080056;28;19925;-60
2022/06/05 04:23:05;;;;;;;;;;;;;;;22.69;100.00;97911.78;5071625;28;19974;-60
2022/06/05 04:25:31;;;;;;;;;;;;;;;22.69;100.00;97912.56;5071529;28;19976;-60
2022/06/05 04:27:57;;;;;;;;;;;;;;;22.39;100.00;97903.81;5071539;28;19929;-60
2022/06/05 04:30:25;;;;;;;;;;;;;;;21.92;100.00;97910.78;5071502;28;19925;-60
2022/06/05 04:32:51;;;;;;;;;;;;;;;21.77;100.00;97909.47;5071413;28;19948;-60
2022/06/05 04:35:19;;;;;;;;;;;;;;;22.24;100.00;97917.31;5067666;28;19931;-60
2022/06/05 04:37:46;;;;;;;;;;;;;;;22.47;100.00;97910.28;5081712;28;19928;-60
2022/06/05 04:40:13;;;;;;;;;;;;;;;22.44;100.00;97917.19;5079515;28;19924;-60
2022/06/05 04:42:39;;;;;;;;;;;;;;;22.54;100.00;97905.88;5093955;28;19924;-60
2022/06/05 04:45:06;;;;;;;;;;;;;;;22.32;100.00;97911.75;5083175;28;19995;-60
2022/06/05 04:47:32;;;;;;;;;;;;;;;22.43;100.00;97914.84;5083213;28;19932;-60
2022/06/05 04:49:58;;;;;;;;;;;;;;;22.64;100.00;97912.00;5079750;28;19924;-60
2022/06/05 04:52:27;;;;;;;;;;;;;;;22.71;100.00;97901.34;5079655;28;19921;-60
2022/06/05 04:54:54;;;;;;;;;;;;;;;22.86;100.00;97900.66;5081844;28;19931;-60
2022/06/05 04:57:20;;;;;;;;;;;;;;;22.72;100.00;97906.44;5082759;28;19924;-60
2022/06/05 04:59:48;;;;;;;;;;;;;;;22.71;100.00;97901.34;5081371;28;19924;-60
2022/06/05 05:02:14;;;;;;;;;;;;;;;22.30;100.00;97905.06;5079198;28;19924;-60
2022/06/05 05:04:41;;;;;;;;;;;;;;;22.19;100.00;97901.97;5079557;28;19975;-61
2022/06/05 05:07:10;;;;;;;;;;;;;;;22.13;100.00;97903.34;5081785;28;19935;-60
2022/06/05 05:09:38;;;;;;;;;;;;;;;21.84;100.00;97892.63;5082547;28;19947;-61
2022/06/05 05:12:04;;;;;;;;;;;;;;;21.62;100.00;97887.56;5075710;28;19975;-61
2022/06/05 05:14:31;;;;;;;;;;;;;;;21.67;100.00;97888.16;5069910;28;19925;-61
2022/06/05 05:16:57;;;;;;;;;;;;;;;21.88;100.00;97883.47;5081700;28;19995;-61
2022/06/05 05:19:23;;;;;;;;;;;;;;;21.60;100.00;97871.56;5082259;28;19925;-61
2022/06/05 05:21:50;;;;;;;;;;;;;;;21.48;100.00;97869.63;5080390;28;19924;-61
2022/06/05 05:24:16;;;;;;;;;;;;;;;21.92;100.00;97875.44;5078619;28;19928;-60
2022/06/05 05:26:45;;;;;;;;;;;;;;;22.26;100.00;97866.84;5079460;28;19971;-60
2022/06/05 05:29:11;;;;;;;;;;;;;;;21.81;100.00;97863.38;5082202;28;19920;-59
2022/06/05 05:31:39;;;;;;;;;;;;;;;21.66;100.00;97856.69;5082011;28;20042;-60
2022/06/05 05:34:06;;;;;;;;;;;;;;;21.70;100.00;97843.19;5078670;28;20587;-60
2022/06/05 05:36:33;;;;;;;;;;;;;;;21.90;100.00;97845.88;5078800;28;19925;-61
2022/06/05 05:44:30;;;;;;;;;;;;;;;22.44;100.00;97834.75;5078732;28;19948;-60
2022/06/05 05:46:57;;;;;;;;;;;;;;;22.72;100.00;97826.69;5081326;28;20411;-60
2022/06/05 05:49:23;;;;;;;;;;;;;;;22.98;100.00;97825.16;5081682;28;19954;-60
2022/06/05 05:51:49;;;;;;;;;;;;;;;23.28;100.00;97814.72;5080444;28;19924;-61
2022/06/05 05:54:16;;;;;;;;;;;;;;;23.50;100.00;97799.75;5078730;28;20000;-61
2022/06/05 05:56:42;;;;;;;;;;;;;;;23.76;100.00;97802.78;5079599;28;19925;-61
2022/06/05 05:59:10;;;;;;;;;;;;;;;23.90;100.00;97803.13;5082027;28;20528;-61
2022/06/05 06:01:37;;;;;;;;;;;;;;;24.08;100.00;97801.63;5081913;28;19940;-61
2022/06/05 06:04:03;;;;;;;;;;;;;;;24.23;100.00;97815.63;5060531;28;20442;-61
2022/06/05 06:06:31;;;;;;;;;;;;;;;24.41;100.00;97827.75;5078236;28;19925;-60
2022/06/05 06:08:58;;;;;;;;;;;;;;;24.60;100.00;97823.13;5081110;28;19959;-61
2022/06/05 06:11:24;;;;;;;;;;;;;;;24.73;100.00;97815.59;5081781;28;19924;-60
2022/06/05 06:13:51;;;;;;;;;;;;;;;24.90;100.00;97812.50;5094132;28;19924;-60
2022/06/05 06:16:18;;;;;;;;;;;;;;;24.97;100.00;97814.59;5078285;28;20434;-60
2022/06/05 06:18:45;;;;;;;;;;;;;;;24.95;100.00;97814.94;5063319;28;19925;-60
2022/06/05 06:21:11;;;;;;;;;;;;;;;25.01;100.00;97812.69;5085509;28;19984;-60
2022/06/05 06:23:38;;;;;;;;;;;;;;;24.86;100.00;97810.81;5085579;28;20042;-60
2022/06/05 06:26:05;;;;;;;;;;;;;;;25.03;100.00;97815.88;5082097;28;19974;-60
2022/06/05 06:28:31;;;;;;;;;;;;;;;25.06;100.00;97807.75;5082104;28;19925;-60
2022/06/05 06:30:57;;;;;;;;;;;;;;;25.15;100.00;97802.06;5084768;28;19928;-60
2022/06/05 06:33:25;;;;;;;;;;;;;;;25.15;100.00;97802.88;5085538;28;19951;-60
2022/06/05 06:35:52;;;;;;;;;;;;;;;25.24;100.00;97794.44;5083301;28;19947;-60
2022/06/05 06:38:21;;;;;;;;;;;;;;;25.07;100.00;97790.19;5081819;28;19925;-61
2022/06/05 06:40:47;;;;;;;;;;;;;;;25.11;100.00;97774.66;5083346;28;19928;-61
2022/06/05 06:43:13;;;;;;;;;;;;;;;25.11;100.00;97771.16;5099507;28;19947;-59
2022/06/05 06:45:40;;;;;;;;;;;;;;;25.15;100.00;97764.59;5084760;28;19924;-60
2022/06/05 06:48:07;;;;;;;;;;;;;;;25.36;100.00;97774.34;5081703;28;19996;-60
2022/06/05 06:50:37;;;;;;;;;;;;;;;25.44;100.00;97776.84;5081586;28;19924;-60
2022/06/05 06:53:03;;;;;;;;;;;;;;;25.36;100.00;97786.06;5073392;28;19948;-60
2022/06/05 06:55:32;;;;;;;;;;;;;;;25.32;100.00;97782.47;5073399;28;19925;-60
2022/06/05 06:57:59;;;;;;;;;;;;;;;25.20;100.00;97793.56;5055567;28;19988;-60
2022/06/05 07:00:25;;;;;;;;;;;;;;;25.34;100.00;97801.25;5063627;28;19932;-60
2022/06/05 07:02:51;;;;;;;;;;;;;;;25.57;100.00;97800.16;5073122;28;19924;-60
2022/06/05 07:05:18;;;;;;;;;;;;;;;25.64;99.13;97791.31;5073446;28;19925;-60
2022/06/05 07:07:47;;;;;;;;;;;;;;;25.68;96.30;97787.47;5082360;28;19925;-60
2022/06/05 07:10:13;;;;;;;;;;;;;;;25.29;98.22;97788.66;5084721;28;19924;-60
2022/06/05 07:12:40;;;;;;;;;;;;;;;24.82;98.17;97788.13;5091748;28;19924;-60
2022/06/05 07:15:07;;;;;;;;;;;;;;;24.70;100.00;97789.00;5084604;28;19924;-60
2022/06/05 07:17:34;;;;;;;;;;;;;;;25.07;100.00;97794.88;5084664;28;19963;-60
2022/06/05 07:20:00;;;;;;;;;;;;;;;24.98;98.25;97797.03;5081404;28;19936;-61
2022/06/05 07:22:27;;;;;;;;;;;;;;;25.07;100.00;97789.41;5081117;28;19927;-61
2022/06/05 07:24:54;;;;;;;;;;;;;;;25.32;99.18;97796.16;5083287;28;19924;-61
2022/06/05 07:27:21;;;;;;;;;;;;;;;25.25;94.46;97787.84;5084567;28;19947;-61
2022/06/05 07:29:47;;;;;;;;;;;;;;;25.04;98.94;97771.00;5082544;28;19924;-61
2022/06/05 07:32:14;;;;;;;;;;;;;;;25.22;99.33;97774.88;5081115;28;19958;-60
2022/06/05 07:34:41;;;;;;;;;;;;;;;25.13;98.47;97774.28;5081589;28;20154;-60
2022/06/05 07:37:07;;;;;;;;;;;;;;;24.86;100.00;97778.03;5084421;28;19928;-61
2022/06/05 07:39:34;;;;;;;;;;;;;;;24.87;100.00;97774.19;5084174;28;19980;-60
2022/06/05 07:42:02;;;;;;;;;;;;;;;24.97;100.00;97776.34;5084906;28;19928;-60
2022/06/05 07:44:28;;;;;;;;;;;;;;;24.83;100.00;97771.38;5090149;28;20028;-61
2022/06/05 07:46:55;;;;;;;;;;;;;;;24.84;100.00;97772.97;5082882;28;19925;-60
2022/06/05 07:49:21;;;;;;;;;;;;;;;24.80;100.00;97784.91;5065836;28;19924;-62
2022/06/05 07:54:34;;;;;;;;;;;;;;;24.65;99.96;97773.72;5080635;28;19943;-61
2022/06/05 07:57:03;;;;;;;;;;;;;;;24.67;99.52;97765.94;5083790;28;19928;-61
2022/06/05 07:59:30;;;;;;;;;;;;;;;24.81;97.39;97772.84;5084032;28;20004;-60
2022/06/05 08:01:57;;;;;;;;;;;;;;;24.68;98.29;97773.00;5081143;28;20404;-61
2022/06/05 08:04:23;;;;;;;;;;;;;;;24.94;97.83;97772.41;5080126;28;19931;-59
2022/06/05 08:06:51;;;;;;;;;;;;;;;24.93;97.17;97772.75;5081880;28;19924;-60
2022/06/05 08:09:18;;;;;;;;;;;;;;;24.62;98.63;97785.34;5083633;28;19920;-60
2022/06/05 08:11:45;;;;;;;;;;;;;;;24.81;99.07;97791.97;5082620;28;19951;-61
2022/06/05 08:14:14;;;;;;;;;;;;;;;24.68;99.63;97800.31;5080163;28;19935;-60
2022/06/05 08:16:43;;;;;;;;;;;;;;;24.49;100.00;97810.38;5080680;28;20004;-61
2022/06/05 08:19:10;;;;;;;;;;;;;;;24.41;100.00;97819.56;5083541;28;19988;-60
2022/06/05 08:21:36;;;;;;;;;;;;;;;24.23;100.00;97832.81;5083688;28;19925;-62
2022/06/05 08:24:04;;;;;;;;;;;;;;;24.25;100.00;97840.63;5071608;28;19948;-62
2022/06/05 08:26:31;;;;;;;;;;;;;;;24.59;100.00;97870.72;5071681;28;19929;-61
2022/06/05 08:28:57;;;;;;;;;;;;;;;24.66;100.00;97903.63;5071589;28;19929;-61
2022/06/05 08:31:25;;;;;;;;;;;;;;;24.90;100.00;97937.38;5071517;28;19932;-61
2022/06/05 08:33:51;;;;;;;;;;;;;;;25.09;98.90;97960.06;5071490;28;19925;-61
2022/06/05 08:36:18;;;;;;;;;;;;;;;25.26;98.10;97961.59;5071362;28;19975;-61
2022/06/05 08:41:33;;;;;;;;;;;;;;;25.38;97.53;97945.06;5018351;28;19925;-62
2022/06/05 08:44:06;;;;;;;;;;;;;;;25.47;96.20;97972.97;5094113;28;19932;-61
2022/06/05 08:46:37;;;;;;;;;;;;;;;25.47;97.29;97972.97;5079652;28;19928;-61
2022/06/05 08:49:06;;;;;;;;;;;;;;;25.56;97.33;97986.50;5071030;28;19931;-61
2022/06/05 08:51:39;;;;;;;;;;;;;;;25.43;100.00;97982.28;5071408;28;19955;-61
2022/06/05 08:54:07;;;;;;;;;;;;;;;25.46;100.00;97981.56;5071223;28;19935;-61
2022/06/05 08:56:37;;;;;;;;;;;;;;;25.17;100.00;97982.88;5079378;28;19984;-61
2022/06/05 08:59:07;;;;;;;;;;;;;;;25.05;100.00;97988.47;5079456;28;19952;-61
2022/06/05 09:01:38;;;;;;;;;;;;;;;25.09;100.00;97967.47;5079292;28;19925;-61
2022/06/05 09:04:15;;;;;;;;;;;;;;;24.83;100.00;97962.56;5079359;28;19924;-61
2022/06/05 09:06:45;;;;;;;;;;;;;;;24.61;100.00;97958.50;5079589;28;20071;-61
2022/06/05 09:09:16;;;;;;;;;;;;;;;24.78;100.00;97954.63;5082422;28;19925;-62
2022/06/05 09:11:45;;;;;;;;;;;;;;;24.92;100.00;97970.56;5081788;28;19963;-61
2022/06/05 09:14:18;;;;;;;;;;;;;;;24.84;100.00;97960.66;5079210;28;19928;-61
2022/06/05 09:16:48;;;;;;;;;;;;;;;24.37;100.00;97953.25;5080102;28;19924;-61
2022/06/05 09:19:17;;;;;;;;;;;;;;;24.19;100.00;97952.00;5082605;28;20031;-61
2022/06/05 09:21:48;;;;;;;;;;;;;;;24.10;100.00;97943.16;5081750;28;19977;-61
2022/06/05 09:24:15;;;;;;;;;;;;;;;23.60;100.00;97930.91;5079095;28;19924;-61
2022/06/05 09:26:43;;;;;;;;;;;;;;;23.33;100.00;97931.66;5079392;28;19931;-61
2022/06/05 09:29:19;;;;;;;;;;;;;;;23.33;100.00;97942.56;5082376;28;20335;-61
2022/06/05 09:32:03;;;;;;;;;;;;;;;23.33;100.00;97931.66;5081030;28;19955;-61
2022/06/05 09:34:34;;;;;;;;;;;;;;;23.09;100.00;97931.69;5071693;28;19929;-61
2022/06/05 09:37:05;;;;;;;;;;;;;;;23.00;100.00;97910.03;5081886;28;19928;-61
2022/06/05 09:39:34;;;;;;;;;;;;;;;23.21;100.00;97923.50;5082211;28;19925;-62
2022/06/05 09:42:15;;;;;;;;;;;;;;;23.34;100.00;97933.22;5082955;28;19933;-62
2022/06/05 09:44:47;;;;;;;;;;;;;;;23.61;100.00;97920.78;5082541;28;19925;-61
2022/06/05 09:47:16;;;;;;;;;;;;;;;23.52;100.00;97929.09;5064269;28;19924;-60
2022/06/05 09:49:47;;;;;;;;;;;;;;;23.40;100.00;97920.97;5081125;28;19920;-60
2022/06/05 09:52:15;;;;;;;;;;;;;;;23.21;100.00;97906.38;5078434;28;19925;-61
2022/06/05 09:54:44;;;;;;;;;;;;;;;23.00;100.00;97896.41;5078723;28;19925;-61
2022/06/05 10:00:33;;;;;;;;;;;;;;;23.34;100.00;97884.16;4996896;28;19930;-61
2022/06/05 10:03:02;;;;;;;;;;;;;;;23.06;100.00;97867.81;4999875;28;19937;-61
2022/06/05 10:05:31;;;;;;;;;;;;;;;23.16;100.00;97855.63;5038296;28;19924;-61
2022/06/05 10:07:59;;;;;;;;;;;;;;;23.60;100.00;97830.03;5079039;28;20308;-61
2022/06/05 10:10:27;;;;;;;;;;;;;;;23.65;100.00;97807.94;5078244;28;19921;-61
2022/06/05 10:12:55;;;;;;;;;;;;;;;23.19;100.00;97781.38;5094784;28;20296;-61
2022/06/05 10:15:24;;;;;;;;;;;;;;;22.86;100.00;97767.22;5081931;28;20486;-61
2022/06/05 10:17:53;;;;;;;;;;;;;;;22.90;100.00;97765.41;5079667;28;19925;-61
2022/06/05 10:20:50;;;;;;;;;;;;;;;22.69;100.00;97776.47;5077768;28;20031;-61
2022/06/05 10:23:22;;;;;;;;;;;;;;;23.12;100.00;97781.97;5069492;28;19992;-61
2022/06/05 10:25:53;;;;;;;;;;;;;;;23.52;100.00;97781.13;5069466;28;19932;-61
2022/06/05 10:28:20;;;;;;;;;;;;;;;23.77;100.00;97773.59;5069405;28;19924;-61
2022/06/05 10:30:53;;;;;;;;;;;;;;;24.10;100.00;97785.69;5069696;28;19964;-61
2022/06/05 10:33:24;;;;;;;;;;;;;;;24.25;100.00;97786.84;5069679;28;19925;-61
2022/06/05 10:35:54;;;;;;;;;;;;;;;24.41;100.00;97784.88;5069714;28;19925;-61
2022/06/05 10:38:34;;;;;;;;;;;;;;;24.42;100.00;97785.66;5069746;28;19959;-60
2022/06/05 10:41:04;;;;;;;;;;;;;;;24.48;100.00;97787.75;5069671;28;20036;-59
2022/06/05 10:43:32;;;;;;;;;;;;;;;24.28;100.00;97783.41;5091267;28;19932;-61
2022/06/05 10:45:59;;;;;;;;;;;;;;;24.00;100.00;97790.88;5078485;28;19933;-61
2022/06/05 10:48:38;;;;;;;;;;;;;;;24.16;100.00;97784.31;5077669;28;19943;-61
2022/06/05 10:51:12;;;;;;;;;;;;;;;24.09;100.00;97780.59;5077808;28;20055;-61
2022/06/05 10:53:42;;;;;;;;;;;;;;;24.15;100.00;97763.63;5077981;28;19933;-61
2022/06/05 10:56:21;;;;;;;;;;;;;;;24.18;100.00;97767.56;5081066;28;19932;-61
2022/06/05 10:58:52;;;;;;;;;;;;;;;24.17;100.00;97758.59;5079841;28;19931;-61
2022/06/05 11:01:28;;;;;;;;;;;;;;;24.24;100.00;97746.25;5077528;28;19964;-61
2022/06/05 11:03:57;;;;;;;;;;;;;;;24.27;100.00;97745.53;5079897;28;20424;-61
2022/06/05 11:06:29;;;;;;;;;;;;;;;24.22;100.00;97743.09;5083544;28;19988;-61
2022/06/05 11:09:08;;;;;;;;;;;;;;;24.17;100.00;97742.22;5064375;28;19932;-60
2022/06/05 11:14:23;;;;;;;;;;;;;;;23.97;100.00;97746.03;5081111;28;19931;-60
2022/06/05 11:16:51;;;;;;;;;;;;;;;24.09;100.00;97756.03;5082598;28;19936;-60
2022/06/05 11:19:22;;;;;;;;;;;;;;;24.11;100.00;97740.91;5084720;28;19978;-60
2022/06/05 11:21:49;;;;;;;;;;;;;;;24.20;100.00;97743.47;5083099;28;19950;-60
2022/06/05 11:24:29;;;;;;;;;;;;;;;24.19;100.00;97747.34;5080989;28;19924;-60
2022/06/05 11:27:01;;;;;;;;;;;;;;;24.06;100.00;97745.81;5083500;28;20019;-60
2022/06/05 11:29:34;;;;;;;;;;;;;;;24.18;100.00;97737.56;5084198;28;19932;-61
2022/06/05 11:32:24;;;;;;;;;;;;;;;24.26;100.00;97750.22;5081407;28;20395;-60
2022/06/05 11:34:55;;;;;;;;;;;;;;;24.31;100.00;97747.22;5072063;28;19924;-60
2022/06/05 11:37:34;;;;;;;;;;;;;;;24.47;100.00;97750.69;5084147;28;19952;-60
2022/06/05 11:40:05;;;;;;;;;;;;;;;24.69;100.00;97733.63;5081131;28;19932;-60
2022/06/05 11:42:35;;;;;;;;;;;;;;;24.90;100.00;97722.34;5093386;28;19924;-60
2022/06/05 11:45:08;;;;;;;;;;;;;;;24.96;100.00;97711.91;5084290;28;19952;-60
2022/06/05 11:47:38;;;;;;;;;;;;;;;25.18;100.00;97706.50;5083940;28;19924;-61
2022/06/05 11:50:10;;;;;;;;;;;;;;;25.15;100.00;97701.75;5080499;28;19956;-61
2022/06/05 11:52:41;;;;;;;;;;;;;;;25.21;100.00;97707.72;5080740;28;19942;-59
2022/06/05 11:55:25;;;;;;;;;;;;;;;25.19;100.00;97699.84;5080392;28;20676;-60
2022/06/05 11:57:57;;;;;;;;;;;;;;;25.19;100.00;97701.81;5082280;28;19936;-61
2022/06/05 12:00:29;;;;;;;;;;;;;;;25.46;100.00;97708.13;5083818;28;19940;-60
2022/06/05 12:03:04;;;;;;;;;;;;;;;25.44;100.00;97694.81;5081312;28;19932;-61
2022/06/05 12:05:37;;;;;;;;;;;;;;;25.51;100.00;97694.19;5062251;28;19925;-60
2022/06/05 12:08:05;;;;;;;;;;;;;;;25.50;100.00;97687.91;5080051;28;19925;-60
2022/06/05 12:10:36;;;;;;;;;;;;;;;25.50;100.00;97684.41;5080453;28;19925;-60
2022/06/05 12:13:09;;;;;;;;;;;;;;;25.36;100.00;97686.88;5098032;28;19954;-60
2022/06/05 12:15:42;;;;;;;;;;;;;;;25.55;100.00;97684.91;5083496;28;19927;-60
2022/06/05 12:18:11;;;;;;;;;;;;;;;25.57;100.00;97676.31;5071621;28;19924;-59
2022/06/05 12:20:41;;;;;;;;;;;;;;;25.47;100.00;97677.69;5071736;28;20374;-59
2022/06/05 12:23:13;;;;;;;;;;;;;;;25.21;100.00;97674.91;5075625;28;20052;-59
2022/06/05 12:25:48;;;;;;;;;;;;;;;25.20;100.00;97671.38;5083118;28;19983;-59
2022/06/05 12:28:17;;;;;;;;;;;;;;;25.19;100.00;97669.03;5079543;28;19932;-59
2022/06/05 12:30:49;;;;;;;;;;;;;;;25.32;100.00;97659.47;5080276;28;19924;-59
2022/06/05 12:33:18;;;;;;;;;;;;;;;25.37;100.00;97667.38;5083037;28;19984;-59
2022/06/05 12:35:49;;;;;;;;;;;;;;;25.34;100.00;97667.31;5082139;28;19943;-59
2022/06/05 12:38:21;;;;;;;;;;;;;;;25.28;100.00;97661.38;5079331;28;19933;-59
2022/06/05 12:40:55;;;;;;;;;;;;;;;25.40;100.00;97661.19;5080812;28;19924;-59
2022/06/05 12:43:25;;;;;;;;;;;;;;;25.44;100.00;97655.78;5097193;28;19925;-59
2022/06/05 12:45:55;;;;;;;;;;;;;;;25.57;100.00;97655.22;5080696;28;19924;-60
2022/06/05 12:48:23;;;;;;;;;;;;;;;25.58;100.00;97650.56;5079089;28;19932;-59
2022/06/05 12:50:53;;;;;;;;;;;;;;;25.64;100.00;97649.88;5080605;28;19924;-58
2022/06/05 12:53:28;;;;;;;;;;;;;;;25.46;100.00;97650.72;5082679;28;19932;-58
2022/06/05 12:55:59;;;;;;;;;;;;;;;25.57;100.00;97652.50;5080436;28;19924;-59
2022/06/05 12:58:30;;;;;;;;;;;;;;;25.69;100.00;97646.81;5079097;28;19924;-59
2022/06/05 13:00:59;;;;;;;;;;;;;;;25.70;100.00;97642.94;5081549;28;19947;-60
2022/06/05 13:03:28;;;;;;;;;;;;;;;25.81;100.00;97640.34;5082333;28;19951;-61
2022/06/05 13:05:57;;;;;;;;;;;;;;;25.94;100.00;97622.56;5080130;28;19931;-60
2022/06/05 13:08:28;;;;;;;;;;;;;;;25.91;100.00;97627.97;5078728;28;19947;-60